Time;durP1;ratioP1;P1;durP2;ratioP2;P2;SDS_P1;SDS_P2;PMS_P1;PMS_P2;Temp;Humidity;BMP_temperature;BMP_pressure;BME280_temperature;BME280_humidity;BME280_pressure;Samples;Min_cycle;Max_cycle;Signal;HPM_P1;HPM_P2
2023/08/16 00:02:22;;;;;;;2.50;1.40;;;13.90;99.90;;;;;;5053270;28;20056;-69
2023/08/16 00:04:48;;;;;;;2.67;1.38;;;13.90;99.90;;;;;;5053857;28;20072;-70
2023/08/16 00:07:14;;;;;;;3.90;1.40;;;13.80;99.90;;;;;;5053251;28;20049;-69
2023/08/16 00:09:39;;;;;;;2.50;1.50;;;13.80;99.90;;;;;;5053265;28;20375;-69
2023/08/16 00:12:07;;;;;;;2.00;1.40;;;13.80;99.90;;;;;;5053240;28;20045;-69
2023/08/16 00:14:32;;;;;;;4.45;1.50;;;13.80;99.90;;;;;;5053269;28;20515;-69
2023/08/16 00:16:58;;;;;;;3.28;1.70;;;13.80;99.90;;;;;;5053767;28;20084;-69
2023/08/16 00:19:25;;;;;;;2.88;1.50;;;13.70;99.90;;;;;;5053172;28;20071;-69
2023/08/16 00:21:51;;;;;;;3.47;1.38;;;13.60;99.90;;;;;;5053059;28;20165;-69
2023/08/16 00:24:16;;;;;;;2.30;1.35;;;13.60;99.90;;;;;;5053058;28;20095;-69
2023/08/16 00:26:43;;;;;;;2.88;1.60;;;13.50;99.90;;;;;;5052736;28;20042;-69
2023/08/16 00:29:08;;;;;;;2.92;1.70;;;13.50;99.90;;;;;;5053846;28;20394;-70
2023/08/16 00:31:34;;;;;;;2.25;1.20;;;13.50;99.90;;;;;;5052962;28;20041;-69
2023/08/16 00:34:00;;;;;;;3.33;1.60;;;13.40;99.90;;;;;;5018773;28;20045;-69
2023/08/16 00:36:25;;;;;;;3.67;1.50;;;13.30;99.90;;;;;;5052971;28;20045;-69
2023/08/16 00:38:51;;;;;;;3.60;1.70;;;13.20;99.90;;;;;;5052963;28;20501;-69
2023/08/16 00:41:17;;;;;;;1.85;1.20;;;13.30;99.90;;;;;;5037546;28;20041;-69
2023/08/16 00:43:43;;;;;;;4.85;1.40;;;13.20;99.90;;;;;;5056593;28;20045;-70
2023/08/16 00:46:11;;;;;;;2.35;1.27;;;13.20;99.90;;;;;;5056584;28;20131;-69
2023/08/16 00:48:39;;;;;;;2.28;1.08;;;13.10;99.90;;;;;;5057065;28;20394;-69
2023/08/16 00:51:06;;;;;;;2.45;1.50;;;13.00;99.90;;;;;;5056496;28;20049;-69
2023/08/16 00:53:32;;;;;;;2.47;1.60;;;13.00;99.90;;;;;;5038303;28;20052;-69
2023/08/16 00:55:58;;;;;;;3.38;1.60;;;13.00;99.90;;;;;;5056330;28;20045;-69
2023/08/16 00:58:27;;;;;;;5.25;2.15;;;13.00;99.90;;;;;;5057202;28;20067;-70
2023/08/16 01:00:53;;;;;;;3.33;1.88;;;13.00;99.90;;;;;;5056309;28;20159;-69
2023/08/16 01:03:19;;;;;;;2.45;1.58;;;12.90;99.90;;;;;;5056146;28;20136;-69
2023/08/16 01:05:45;;;;;;;3.00;1.63;;;12.90;99.90;;;;;;5056922;28;20490;-70
2023/08/16 01:08:11;;;;;;;3.97;1.80;;;12.90;99.90;;;;;;5056105;28;20389;-69
2023/08/16 01:10:52;;;;;;;3.50;1.92;;;12.80;99.90;;;;;;5056154;28;20037;-69
2023/08/16 01:13:29;;;;;;;4.75;2.05;;;12.80;99.90;;;;;;5056068;28;20041;-69
2023/08/16 01:15:57;;;;;;;3.22;1.67;;;12.80;99.90;;;;;;5056135;28;20044;-69
2023/08/16 01:18:25;;;;;;;2.67;1.73;;;12.80;99.90;;;;;;5056089;28;20041;-70
2023/08/16 01:20:52;;;;;;;2.00;1.40;;;12.90;99.90;;;;;;5056027;28;20052;-69
2023/08/16 01:23:31;;;;;;;2.53;1.38;;;12.90;99.90;;;;;;5055892;28;20389;-70
2023/08/16 01:26:04;;;;;;;2.38;1.65;;;12.80;99.90;;;;;;5056454;28;20036;-70
2023/08/16 01:28:33;;;;;;;5.50;1.58;;;12.80;99.90;;;;;;5056363;28;20404;-70
2023/08/16 01:31:02;;;;;;;2.53;1.20;;;12.70;99.90;;;;;;5055787;28;20051;-70
2023/08/16 01:33:28;;;;;;;3.47;1.10;;;12.60;99.90;;;;;;5055707;28;20087;-70
2023/08/16 01:35:54;;;;;;;1.73;1.05;;;12.60;99.90;;;;;;5055961;28;20045;-69
2023/08/16 01:38:19;;;;;;;33.35;3.05;;;12.50;99.90;;;;;;5037802;28;20098;-70
2023/08/16 01:40:54;;;;;;;31.50;2.58;;;12.50;99.90;;;;;;5038119;28;20056;-70
2023/08/16 01:43:21;;;;;;;52.30;3.70;;;12.50;99.90;;;;;;5055987;28;20091;-70
2023/08/16 01:45:49;;;;;;;13.77;2.20;;;12.50;99.90;;;;;;5055420;28;20053;-70
2023/08/16 01:48:15;;;;;;;3.22;1.10;;;12.50;99.90;;;;;;5055455;28;20105;-69
2023/08/16 01:50:41;;;;;;;3.03;1.40;;;12.60;99.90;;;;;;5055266;28;20049;-69
2023/08/16 01:53:08;;;;;;;1.88;1.20;;;12.60;99.90;;;;;;5055691;28;20037;-69
2023/08/16 01:55:33;;;;;;;6.68;1.45;;;12.70;99.90;;;;;;5055033;28;20510;-69
2023/08/16 01:58:00;;;;;;;11.45;1.35;;;12.70;99.90;;;;;;5055320;28;20239;-69
2023/08/16 02:00:25;;;;;;;12.88;1.65;;;12.80;99.90;;;;;;5055553;28;20048;-70
2023/08/16 02:02:51;;;;;;;9.50;1.67;;;12.70;99.90;;;;;;5037610;28;20057;-69
2023/08/16 02:05:17;;;;;;;12.25;1.63;;;12.60;99.90;;;;;;5055045;28;20539;-69
2023/08/16 02:07:42;;;;;;;6.70;1.52;;;12.60;99.90;;;;;;5037317;28;20071;-69
2023/08/16 02:10:08;;;;;;;5.63;1.38;;;12.60;99.90;;;;;;5055027;28;20080;-70
2023/08/16 02:12:34;;;;;;;3.22;1.27;;;12.60;99.90;;;;;;5054923;28;20041;-70
2023/08/16 02:15:00;;;;;;;3.38;1.10;;;12.60;99.90;;;;;;5054055;28;20061;-69
2023/08/16 02:17:26;;;;;;;1.92;0.88;;;12.60;99.90;;;;;;5054926;28;20049;-69
2023/08/16 02:19:51;;;;;;;51.17;3.83;;;12.60;99.90;;;;;;5054824;28;20132;-69
2023/08/16 02:22:17;;;;;;;73.50;5.05;;;12.60;99.90;;;;;;5054409;28;20519;-70
2023/08/16 02:24:43;;;;;;;43.83;3.13;;;12.40;99.90;;;;;;5054594;28;20132;-69
2023/08/16 02:27:09;;;;;;;20.05;2.15;;;12.30;99.90;;;;;;5054423;28;20106;-69
2023/08/16 02:29:34;;;;;;;5.90;1.80;;;12.20;99.90;;;;;;5053671;28;20059;-70
2023/08/16 02:32:00;;;;;;;37.72;3.70;;;12.20;99.90;;;;;;5054564;28;20049;-69
2023/08/16 02:34:26;;;;;;;2.45;1.45;;;12.20;99.90;;;;;;5054432;28;20079;-70
2023/08/16 02:36:51;;;;;;;3.70;1.60;;;12.20;99.90;;;;;;5054646;28;20466;-69
2023/08/16 02:39:17;;;;;;;2.78;1.60;;;12.20;99.90;;;;;;5054490;28;20044;-70
2023/08/16 02:41:43;;;;;;;4.40;2.38;;;12.20;99.90;;;;;;5053486;28;20044;-69
2023/08/16 02:44:08;;;;;;;4.10;2.20;;;12.30;99.90;;;;;;5054425;28;20127;-69
2023/08/16 02:46:34;;;;;;;2.67;1.80;;;12.20;99.90;;;;;;5054899;28;20368;-70
2023/08/16 02:49:00;;;;;;;13.48;2.70;;;12.20;99.90;;;;;;5054277;28;20119;-69
2023/08/16 02:51:25;;;;;;;3.55;1.52;;;12.20;99.90;;;;;;5054300;28;20051;-69
2023/08/16 02:53:51;;;;;;;2.60;1.30;;;12.10;99.90;;;;;;5054164;28;20513;-70
2023/08/16 02:56:17;;;;;;;53.25;4.72;;;12.00;99.90;;;;;;5036412;28;20044;-69
2023/08/16 02:58:42;;;;;;;23.55;2.03;;;11.90;99.90;;;;;;5054146;28;20136;-70
2023/08/16 03:01:08;;;;;;;17.70;2.78;;;11.80;99.90;;;;;;5054014;28;20150;-69
2023/08/16 03:03:34;;;;;;;3.40;1.40;;;11.80;99.90;;;;;;5053105;28;20061;-69
2023/08/16 03:06:00;;;;;;;2.22;1.40;;;11.70;99.90;;;;;;5053910;28;20516;-70
2023/08/16 03:08:26;;;;;;;3.42;1.42;;;11.60;99.90;;;;;;5053990;28;20041;-69
2023/08/16 03:10:51;;;;;;;3.63;1.30;;;11.60;99.90;;;;;;5054502;28;20434;-69
2023/08/16 03:13:17;;;;;;;2.67;1.30;;;11.60;99.90;;;;;;5053927;28;20505;-70
2023/08/16 03:15:43;;;;;;;3.20;1.50;;;11.60;99.90;;;;;;5053801;28;20045;-69
2023/08/16 03:18:08;;;;;;;3.80;2.10;;;11.60;99.90;;;;;;5036304;28;20127;-69
2023/08/16 03:20:34;;;;;;;3.67;1.80;;;11.60;99.90;;;;;;5052524;28;20049;-69
2023/08/16 03:23:00;;;;;;;3.17;1.80;;;11.70;99.90;;;;;;5053717;28;20049;-69
2023/08/16 03:25:26;;;;;;;2.42;1.80;;;11.80;99.90;;;;;;5053616;28;20079;-69
2023/08/16 03:27:51;;;;;;;2.65;1.83;;;11.90;99.90;;;;;;5035696;28;20085;-69
2023/08/16 03:30:17;;;;;;;4.07;1.88;;;12.00;99.90;;;;;;5054019;28;20056;-70
2023/08/16 03:32:43;;;;;;;3.53;1.83;;;12.00;99.90;;;;;;5054057;28;20428;-70
2023/08/16 03:35:08;;;;;;;4.50;2.15;;;11.90;99.90;;;;;;5036113;28;20049;-70
2023/08/16 03:37:34;;;;;;;4.75;2.03;;;11.90;99.90;;;;;;5054024;28;20131;-69
2023/08/16 03:40:00;;;;;;;3.40;1.80;;;11.90;99.90;;;;;;5053424;28;20095;-69
2023/08/16 03:42:25;;;;;;;2.42;1.58;;;11.90;99.90;;;;;;5036235;28;20056;-70
2023/08/16 03:44:51;;;;;;;4.82;1.90;;;11.90;99.90;;;;;;5035702;28;20041;-69
2023/08/16 03:47:17;;;;;;;3.85;1.80;;;12.00;99.90;;;;;;5053465;28;20132;-70
2023/08/16 03:49:44;;;;;;;2.80;1.67;;;12.00;99.90;;;;;;5053450;28;20053;-69
2023/08/16 03:52:10;;;;;;;2.45;1.30;;;12.00;99.90;;;;;;5053437;28;20128;-70
2023/08/16 03:54:35;;;;;;;3.20;1.60;;;12.00;99.90;;;;;;5053942;28;20129;-69
2023/08/16 03:57:02;;;;;;;4.68;2.10;;;12.10;99.90;;;;;;5053939;28;20371;-69
2023/08/16 03:59:27;;;;;;;4.40;2.17;;;12.20;99.90;;;;;;5053378;28;20045;-69
2023/08/16 04:01:53;;;;;;;3.70;2.10;;;12.30;99.90;;;;;;5054126;28;20041;-69
2023/08/16 04:04:19;;;;;;;2.97;1.92;;;12.30;99.90;;;;;;5035419;28;20064;-70
2023/08/16 04:06:44;;;;;;;2.88;1.90;;;12.40;99.90;;;;;;5053238;28;20539;-69
2023/08/16 04:09:11;;;;;;;3.35;1.73;;;12.30;99.90;;;;;;5054097;28;20175;-69
2023/08/16 04:11:36;;;;;;;3.58;2.22;;;12.30;99.90;;;;;;5053240;28;20041;-69
2023/08/16 04:14:02;;;;;;;2.60;1.73;;;12.20;99.90;;;;;;5053118;28;20055;-69
2023/08/16 04:16:28;;;;;;;3.38;1.90;;;12.20;99.90;;;;;;5039140;28;20054;-69
2023/08/16 04:18:54;;;;;;;3.25;2.05;;;12.20;99.90;;;;;;5056846;28;20052;-69
2023/08/16 04:21:20;;;;;;;4.28;2.05;;;12.20;99.90;;;;;;5055979;28;20409;-71
2023/08/16 04:23:46;;;;;;;3.70;2.13;;;12.20;99.90;;;;;;5057727;28;20422;-70
2023/08/16 04:26:12;;;;;;;5.03;2.50;;;12.20;99.90;;;;;;5038961;28;20140;-71
2023/08/16 04:28:37;;;;;;;2.50;1.83;;;12.20;99.90;;;;;;5056990;28;20080;-70
2023/08/16 04:31:06;;;;;;;3.20;2.13;;;12.20;99.90;;;;;;5039325;28;20081;-70
2023/08/16 04:33:31;;;;;;;8.27;2.10;;;12.20;99.90;;;;;;5056872;28;20041;-70
2023/08/16 04:35:57;;;;;;;2.85;1.85;;;12.20;99.90;;;;;;5056780;28;20371;-70
2023/08/16 04:38:23;;;;;;;2.88;1.88;;;12.20;99.90;;;;;;5057075;28;20052;-70
2023/08/16 04:40:51;;;;;;;2.63;1.70;;;12.10;99.90;;;;;;5056820;28;20123;-71
2023/08/16 04:43:18;;;;;;;3.25;1.85;;;12.20;99.90;;;;;;5057203;28;20073;-70
2023/08/16 04:45:44;;;;;;;3.10;1.98;;;12.20;99.90;;;;;;5056688;28;20448;-70
2023/08/16 04:48:10;;;;;;;3.63;2.40;;;12.30;99.90;;;;;;5056242;28;20567;-70
2023/08/16 04:50:36;;;;;;;4.32;2.25;;;12.40;99.90;;;;;;5056499;28;20048;-70
2023/08/16 04:53:02;;;;;;;3.67;2.42;;;12.50;99.90;;;;;;5056479;28;20041;-70
2023/08/16 04:55:28;;;;;;;3.63;2.13;;;12.60;99.90;;;;;;5039642;28;20051;-70
2023/08/16 04:57:54;;;;;;;4.70;2.40;;;12.70;99.90;;;;;;5056393;28;20080;-70
2023/08/16 05:00:21;;;;;;;4.25;2.13;;;12.80;99.90;;;;;;5056620;28;20075;-70
2023/08/16 05:02:47;;;;;;;4.40;2.50;;;12.90;99.90;;;;;;5038472;28;20041;-70
2023/08/16 05:05:13;;;;;;;3.45;2.50;;;13.00;99.90;;;;;;5056296;28;20067;-70
2023/08/16 05:07:38;;;;;;;4.38;2.70;;;13.10;99.90;;;;;;5056265;28;20076;-70
2023/08/16 05:10:05;;;;;;;4.00;2.75;;;13.20;99.90;;;;;;5056159;28;20045;-70
2023/08/16 05:12:30;;;;;;;5.82;2.33;;;13.30;99.90;;;;;;5056643;28;20048;-70
2023/08/16 05:14:56;;;;;;;2.88;2.13;;;13.30;99.90;;;;;;5038791;28;20422;-70
2023/08/16 05:17:22;;;;;;;3.35;2.42;;;13.40;99.90;;;;;;5055770;28;20067;-70
2023/08/16 05:19:48;;;;;;;4.57;2.50;;;13.40;99.90;;;;;;5055966;28;20041;-70
2023/08/16 05:22:13;;;;;;;3.72;2.45;;;13.50;99.90;;;;;;5038373;28;20132;-70
2023/08/16 05:24:39;;;;;;;3.53;2.75;;;13.50;99.90;;;;;;5055814;28;20110;-71
2023/08/16 05:27:11;;;;;;;2.95;2.28;;;13.50;99.90;;;;;;5055045;28;20119;-70
2023/08/16 05:29:37;;;;;;;3.55;2.70;;;13.60;99.90;;;;;;5056468;28;20049;-70
2023/08/16 05:32:03;;;;;;;4.72;3.10;;;13.60;99.90;;;;;;5055693;28;20045;-70
2023/08/16 05:34:29;;;;;;;4.70;3.05;;;13.60;99.90;;;;;;5055345;28;20037;-70
2023/08/16 05:36:55;;;;;;;4.50;3.20;;;13.60;99.90;;;;;;5055579;28;20147;-70
2023/08/16 05:39:20;;;;;;;4.88;3.40;;;13.60;99.90;;;;;;5055650;28;20045;-70
2023/08/16 05:41:46;;;;;;;5.43;4.00;;;13.70;99.90;;;;;;5055564;28;20390;-70
2023/08/16 05:44:11;;;;;;;6.22;4.30;;;13.70;99.90;;;;;;5055763;28;20044;-70
2023/08/16 05:46:37;;;;;;;7.32;4.20;;;13.80;99.90;;;;;;5055505;28;20052;-70
2023/08/16 05:49:05;;;;;;;5.88;4.03;;;13.80;99.90;;;;;;5055973;28;20102;-70
2023/08/16 05:51:34;;;;;;;7.30;4.13;;;13.90;99.90;;;;;;5055426;28;20049;-71
2023/08/16 05:54:02;;;;;;;6.22;4.20;;;14.00;99.90;;;;;;5055366;28;20045;-71
2023/08/16 05:56:27;;;;;;;7.72;4.47;;;14.00;99.90;;;;;;5055865;28;20052;-71
2023/08/16 05:58:53;;;;;;;8.00;4.40;;;14.20;99.90;;;;;;5055797;28;20079;-71
2023/08/16 06:01:19;;;;;;;7.75;4.78;;;14.30;99.90;;;;;;5055218;28;20083;-70
2023/08/16 06:03:44;;;;;;;7.07;5.55;;;14.50;99.90;;;;;;5055089;28;20097;-70
2023/08/16 06:06:10;;;;;;;7.55;4.88;;;14.60;99.90;;;;;;5037303;28;20056;-70
2023/08/16 06:08:36;;;;;;;7.90;4.85;;;14.80;99.90;;;;;;5037402;28;20090;-70
2023/08/16 06:11:02;;;;;;;7.65;4.45;;;15.00;99.90;;;;;;5054926;28;20056;-68
2023/08/16 06:13:27;;;;;;;6.43;4.40;;;15.10;99.90;;;;;;5054964;28;20478;-68
2023/08/16 06:15:53;;;;;;;10.25;4.90;;;15.30;99.90;;;;;;5054041;28;20049;-68
2023/08/16 06:18:19;;;;;;;6.95;4.75;;;15.40;99.90;;;;;;5038099;28;20461;-68
2023/08/16 06:20:44;;;;;;;7.68;4.68;;;15.50;99.90;;;;;;5037012;28;20055;-68
2023/08/16 06:23:10;;;;;;;6.32;4.47;;;15.70;99.90;;;;;;5055309;28;20041;-68
2023/08/16 06:25:36;;;;;;;7.85;4.97;;;15.80;99.90;;;;;;5054685;28;20044;-68
2023/08/16 06:28:03;;;;;;;7.47;4.75;;;15.90;99.90;;;;;;5054714;28;20440;-69
2023/08/16 06:30:28;;;;;;;6.43;4.35;;;16.00;99.90;;;;;;5054684;28;20115;-68
2023/08/16 06:32:54;;;;;;;9.55;5.53;;;16.10;99.90;;;;;;5055402;28;20077;-69
2023/08/16 06:35:20;;;;;;;10.70;5.00;;;16.20;99.90;;;;;;5053749;28;20473;-69
2023/08/16 06:37:46;;;;;;;7.93;4.80;;;16.20;99.90;;;;;;5036937;28;20056;-68
2023/08/16 06:40:12;;;;;;;5.78;4.40;;;16.30;99.90;;;;;;5036805;28;20498;-69
2023/08/16 06:42:39;;;;;;;8.65;5.07;;;16.40;99.90;;;;;;5037032;28;20048;-69
2023/08/16 06:45:07;;;;;;;6.78;4.97;;;16.50;99.90;;;;;;5054719;28;20436;-69
2023/08/16 06:47:32;;;;;;;7.80;5.03;;;16.60;99.90;;;;;;5020310;28;20053;-68
2023/08/16 06:49:58;;;;;;;9.32;5.82;;;16.70;99.90;;;;;;5054228;28;20048;-69
2023/08/16 06:52:24;;;;;;;7.93;5.45;;;16.70;99.90;;;;;;5054289;28;20536;-68
2023/08/16 06:54:49;;;;;;;7.93;5.13;;;16.80;99.90;;;;;;5054744;28;20385;-69
2023/08/16 06:57:15;;;;;;;7.75;4.68;;;16.90;99.90;;;;;;5054184;28;20146;-69
2023/08/16 06:59:41;;;;;;;7.88;4.70;;;17.00;99.90;;;;;;5054125;28;20045;-68
2023/08/16 07:02:11;;;;;;;7.05;4.60;;;17.10;99.90;;;;;;5054101;28;20064;-69
2023/08/16 07:04:38;;;;;;;8.15;4.65;;;17.30;99.90;;;;;;5054235;28;20061;-69
2023/08/16 07:07:05;;;;;;;7.63;5.07;;;17.40;99.90;;;;;;5036577;28;20402;-68
2023/08/16 07:09:31;;;;;;;6.97;4.60;;;17.50;99.90;;;;;;5053880;28;20087;-68
2023/08/16 07:11:56;;;;;;;5.95;4.60;;;17.60;99.90;;;;;;5053403;28;20084;-69
2023/08/16 07:14:22;;;;;;;8.55;4.78;;;17.70;99.90;;;;;;5053053;28;20083;-67
2023/08/16 07:16:48;;;;;;;6.38;4.65;;;17.80;99.90;;;;;;5053766;28;20045;-68
2023/08/16 07:19:13;;;;;;;6.93;4.70;;;17.90;99.90;;;;;;5053647;28;20132;-68
2023/08/16 07:21:39;;;;;;;7.47;4.70;;;18.00;99.90;;;;;;5053636;28;20045;-68
2023/08/16 07:24:05;;;;;;;6.97;4.38;;;18.00;99.90;;;;;;5053133;28;20060;-67
2023/08/16 07:26:31;;;;;;;6.78;4.80;;;18.20;99.90;;;;;;5036226;28;20072;-67
2023/08/16 07:28:57;;;;;;;8.07;4.63;;;18.20;99.90;;;;;;5054051;28;20048;-67
2023/08/16 07:31:23;;;;;;;7.07;4.57;;;18.30;99.90;;;;;;5053960;28;20094;-67
2023/08/16 07:33:48;;;;;;;7.72;4.25;;;18.30;99.90;;;;;;5054026;28;20420;-68
2023/08/16 07:36:14;;;;;;;5.80;4.15;;;18.30;99.90;;;;;;5053475;28;20041;-67
2023/08/16 07:38:40;;;;;;;7.03;4.20;;;18.30;99.90;;;;;;5035945;28;20393;-67
2023/08/16 07:41:06;;;;;;;5.97;5.20;;;18.40;99.90;;;;;;5053714;28;20095;-67
2023/08/16 07:43:31;;;;;;;7.80;5.07;;;18.50;99.90;;;;;;5053407;28;20045;-67
2023/08/16 07:45:57;;;;;;;6.97;4.28;;;18.60;99.90;;;;;;5053370;28;20071;-67
2023/08/16 07:48:23;;;;;;;7.43;4.60;;;18.70;99.90;;;;;;5053292;28;20428;-67
2023/08/16 07:50:49;;;;;;;8.98;4.30;;;18.80;99.90;;;;;;5059490;28;20041;-67
2023/08/16 07:53:15;;;;;;;6.05;4.28;;;18.70;99.90;;;;;;5059798;28;20485;-67
2023/08/16 07:55:40;;;;;;;7.32;4.15;;;18.60;99.90;;;;;;5058950;28;20060;-68
2023/08/16 07:58:06;;;;;;;5.15;3.47;;;18.60;99.90;;;;;;5059571;28;20040;-67
2023/08/16 08:00:32;;;;;;;5.82;3.40;;;18.60;99.90;;;;;;5060384;28;20143;-67
2023/08/16 08:02:58;;;;;;;5.88;3.88;;;18.70;99.90;;;;;;5060234;28;20049;-68
2023/08/16 08:05:24;;;;;;;5.13;3.40;;;19.00;99.90;;;;;;5042625;28;20056;-68
2023/08/16 08:07:52;;;;;;;6.70;3.75;;;19.10;99.90;;;;;;5059371;28;20052;-68
2023/08/16 08:10:18;;;;;;;4.72;3.55;;;19.20;99.90;;;;;;5059507;28;20178;-69
2023/08/16 08:12:45;;;;;;;5.65;3.65;;;19.30;99.90;;;;;;5059816;28;20628;-68
2023/08/16 08:15:11;;;;;;;5.00;3.58;;;19.20;99.90;;;;;;5042032;28;20041;-68
2023/08/16 08:17:37;;;;;;;4.22;3.35;;;19.00;99.90;;;;;;5060239;28;20037;-68
2023/08/16 08:20:04;;;;;;;5.45;3.90;;;18.90;99.90;;;;;;5041880;28;20049;-67
2023/08/16 08:22:30;;;;;;;6.47;4.03;;;18.90;99.90;;;;;;5060194;28;20052;-68
2023/08/16 08:24:56;;;;;;;6.50;4.10;;;18.80;99.90;;;;;;5059582;28;20045;-67
2023/08/16 08:27:21;;;;;;;5.15;3.78;;;18.70;99.90;;;;;;5041971;28;20041;-69
2023/08/16 08:29:47;;;;;;;7.75;4.57;;;18.70;99.90;;;;;;5059535;28;20049;-67
2023/08/16 08:32:13;;;;;;;8.02;5.00;;;18.70;99.90;;;;;;5059504;28;20045;-70
2023/08/16 08:34:39;;;;;;;7.57;5.05;;;18.60;99.90;;;;;;5059481;28;20097;-69
2023/08/16 08:37:05;;;;;;;10.30;5.05;;;18.70;99.90;;;;;;5059552;28;20041;-68
2023/08/16 08:39:32;;;;;;;7.60;4.80;;;18.80;99.90;;;;;;5059821;28;20047;-67
2023/08/16 08:41:58;;;;;;;7.32;4.57;;;19.10;99.90;;;;;;5059559;28;20405;-68
2023/08/16 08:44:25;;;;;;;7.35;4.30;;;19.20;99.90;;;;;;5059490;28;20087;-67
2023/08/16 08:46:51;;;;;;;5.32;3.60;;;19.20;99.90;;;;;;5059879;28;20055;-67
2023/08/16 08:49:19;;;;;;;6.72;3.63;;;19.20;99.90;;;;;;5059391;28;20171;-69
2023/08/16 08:51:46;;;;;;;5.10;3.47;;;19.20;99.90;;;;;;5042181;28;20469;-69
2023/08/16 08:54:12;;;;;;;4.78;3.53;;;19.30;99.90;;;;;;5059034;28;20571;-69
2023/08/16 08:56:40;;;;;;;5.93;4.15;;;19.40;99.90;;;;;;5059280;28;20057;-69
2023/08/16 08:59:07;;;;;;;5.00;4.00;;;19.50;99.90;;;;;;5041617;28;20090;-68
2023/08/16 09:01:35;;;;;;;6.15;3.63;;;19.60;99.90;;;;;;5038350;28;20394;-68
2023/08/16 09:04:04;;;;;;;6.63;3.90;;;19.70;99.90;;;;;;5055966;28;20052;-68
2023/08/16 09:06:30;;;;;;;7.20;4.47;;;19.70;99.90;;;;;;5038831;28;20390;-68
2023/08/16 09:08:56;;;;;;;7.72;4.57;;;19.90;99.90;;;;;;5038872;28;20044;-67
2023/08/16 09:11:26;;;;;;;6.28;3.90;;;20.10;99.90;;;;;;5056182;28;20045;-68
2023/08/16 09:13:53;;;;;;;7.38;4.53;;;20.40;99.90;;;;;;5056066;28;20084;-68
2023/08/16 09:16:20;;;;;;;5.72;4.25;;;20.70;99.90;;;;;;5055885;28;20051;-67
2023/08/16 09:18:48;;;;;;;6.30;4.10;;;20.90;99.90;;;;;;5055917;28;20088;-70
2023/08/16 09:21:16;;;;;;;7.63;3.85;;;21.10;99.90;;;;;;5056008;28;20553;-67
2023/08/16 09:23:42;;;;;;;5.75;3.90;;;21.20;99.90;;;;;;5054842;28;20474;-68
2023/08/16 09:26:21;;;;;;;4.75;3.70;;;21.30;99.90;;;;;;5056110;28;20048;-68
2023/08/16 09:28:46;;;;;;;6.63;3.75;;;21.30;99.90;;;;;;5055782;28;20132;-68
2023/08/16 09:31:12;;;;;;;5.07;3.40;;;21.30;99.90;;;;;;5055689;28;20124;-68
2023/08/16 09:33:38;;;;;;;6.60;3.88;;;21.30;99.90;;;;;;5054696;28;20102;-67
2023/08/16 09:36:05;;;;;;;4.95;3.22;;;21.40;99.90;;;;;;5056051;28;20449;-67
2023/08/16 09:38:33;;;;;;;5.85;3.33;;;21.40;99.90;;;;;;5037857;28;20056;-67
2023/08/16 09:41:00;;;;;;;6.18;3.38;;;21.50;99.90;;;;;;5055532;28;20068;-67
2023/08/16 09:43:32;;;;;;;4.45;3.00;;;21.50;99.90;;;;;;5056016;28;20045;-67
2023/08/16 09:45:58;;;;;;;5.65;2.58;;;21.70;99.90;;;;;;5055937;28;20166;-68
2023/08/16 09:48:27;;;;;;;5.20;3.03;;;21.80;99.90;;;;;;5037803;28;20045;-68
2023/08/16 09:51:03;;;;;;;4.22;2.58;;;21.90;99.90;;;;;;5055365;28;20045;-68
2023/08/16 09:53:30;;;;;;;4.38;2.90;;;22.00;99.90;;;;;;5055185;28;20171;-68
2023/08/16 09:55:59;;;;;;;4.60;2.70;;;22.10;99.90;;;;;;5055847;28;20068;-68
2023/08/16 09:58:29;;;;;;;4.90;2.65;;;22.10;99.90;;;;;;5055852;28;20064;-69
2023/08/16 10:00:55;;;;;;;4.57;2.83;;;22.10;99.90;;;;;;5055341;28;20053;-68
2023/08/16 10:03:22;;;;;;;4.95;2.40;;;22.20;99.90;;;;;;5054644;28;20505;-67
2023/08/16 10:05:49;;;;;;;4.82;2.80;;;22.30;99.90;;;;;;5037237;28;20045;-68
2023/08/16 10:08:16;;;;;;;3.58;2.60;;;22.40;99.90;;;;;;5054964;28;20139;-68
2023/08/16 10:10:42;;;;;;;3.45;2.17;;;22.50;99.90;;;;;;5054944;28;20053;-66
2023/08/16 10:13:09;;;;;;;4.13;2.40;;;22.60;99.90;;;;;;5054483;28;20087;-68
2023/08/16 10:15:37;;;;;;;4.13;2.08;;;22.70;99.90;;;;;;5055676;28;20081;-69
2023/08/16 10:18:06;;;;;;;3.63;2.22;;;22.90;99.90;;;;;;5054866;28;20103;-68
2023/08/16 10:20:34;;;;;;;3.72;2.13;;;22.90;99.90;;;;;;5055254;28;20098;-69
2023/08/16 10:23:02;;;;;;;3.90;2.40;;;22.70;99.90;;;;;;5054553;28;20053;-67
2023/08/16 10:25:45;;;;;;;3.85;1.90;;;22.40;99.90;;;;;;5037851;28;20049;-67
2023/08/16 10:28:10;;;;;;;2.90;1.98;;;22.20;99.90;;;;;;5054670;28;20136;-68
2023/08/16 10:30:38;;;;;;;2.53;1.77;;;22.20;99.90;;;;;;5037753;28;20132;-67
2023/08/16 10:33:18;;;;;;;4.32;2.05;;;22.20;99.90;;;;;;5055079;28;20048;-67
2023/08/16 10:35:44;;;;;;;3.15;1.85;;;22.20;99.90;;;;;;5054969;28;20123;-67
2023/08/16 10:38:10;;;;;;;5.18;1.95;;;22.30;99.90;;;;;;5055164;28;20096;-69
2023/08/16 10:40:36;;;;;;;3.85;1.85;;;22.30;99.90;;;;;;5055092;28;20439;-69
2023/08/16 10:43:06;;;;;;;4.68;2.15;;;22.30;99.90;;;;;;5037107;28;20045;-68
2023/08/16 10:45:34;;;;;;;3.38;1.65;;;22.30;99.90;;;;;;5036603;28;20048;-67
2023/08/16 10:48:10;;;;;;;3.53;1.90;;;22.20;99.90;;;;;;5055063;28;20048;-67
2023/08/16 10:50:37;;;;;;;4.32;1.98;;;22.10;99.90;;;;;;5052826;28;20045;-68
2023/08/16 10:53:04;;;;;;;2.70;1.75;;;22.10;99.90;;;;;;5054555;28;20045;-67
2023/08/16 10:55:30;;;;;;;2.70;1.90;;;22.10;99.90;;;;;;5054257;28;20067;-67
2023/08/16 10:57:56;;;;;;;4.88;2.05;;;22.10;99.90;;;;;;5054128;28;20397;-67
2023/08/16 11:00:35;;;;;;;3.03;1.80;;;22.10;99.90;;;;;;5053123;28;20045;-68
2023/08/16 11:03:04;;;;;;;2.33;1.75;;;22.10;99.90;;;;;;5053665;28;20049;-67
2023/08/16 11:05:33;;;;;;;3.20;1.73;;;22.10;99.90;;;;;;5054739;28;20433;-69
2023/08/16 11:08:09;;;;;;;2.70;1.80;;;22.10;99.90;;;;;;5036620;28;20124;-68
2023/08/16 11:10:36;;;;;;;2.88;1.90;;;22.10;99.90;;;;;;5053707;28;20095;-67
2023/08/16 11:13:10;;;;;;;4.00;2.03;;;22.00;99.90;;;;;;5054075;28;20106;-70
2023/08/16 11:15:36;;;;;;;5.05;2.17;;;22.10;99.90;;;;;;5037235;28;20497;-68
2023/08/16 11:18:02;;;;;;;4.85;2.17;;;22.10;99.90;;;;;;5053731;28;20041;-69
2023/08/16 11:20:29;;;;;;;3.85;2.03;;;22.00;99.90;;;;;;5036036;28;20088;-71
2023/08/16 11:22:57;;;;;;;3.17;2.10;;;22.00;99.90;;;;;;5054337;28;20081;-69
2023/08/16 11:25:23;;;;;;;3.95;2.00;;;22.10;99.90;;;;;;5053078;28;20045;-68
2023/08/16 11:27:50;;;;;;;3.38;2.38;;;22.20;99.90;;;;;;5054057;28;20052;-69
2023/08/16 11:30:16;;;;;;;2.90;1.75;;;22.40;99.90;;;;;;5035913;28;20127;-69
2023/08/16 11:32:41;;;;;;;2.35;1.33;;;22.60;99.90;;;;;;5053647;28;20144;-69
2023/08/16 11:35:08;;;;;;;2.85;1.50;;;22.70;99.90;;;;;;5036793;28;20048;-68
2023/08/16 11:37:40;;;;;;;2.88;1.73;;;22.80;99.90;;;;;;5036393;28;20136;-68
2023/08/16 11:40:08;;;;;;;4.07;1.83;;;22.90;99.90;;;;;;5052955;28;20106;-69
2023/08/16 11:42:35;;;;;;;2.97;1.80;;;23.00;99.90;;;;;;5035936;28;20049;-68
2023/08/16 11:45:01;;;;;;;2.95;1.85;;;23.00;99.90;;;;;;5053600;28;20478;-69
2023/08/16 11:47:26;;;;;;;3.63;1.75;;;23.00;99.90;;;;;;5036746;28;20097;-69
2023/08/16 11:49:52;;;;;;;1.70;1.08;;;23.20;99.90;;;;;;5053406;28;20552;-70
2023/08/16 11:52:25;;;;;;;2.88;1.10;;;23.30;99.90;;;;;;5053417;28;20052;-68
2023/08/16 11:55:01;;;;;;;2.75;1.08;;;23.10;99.90;;;;;;5053414;28;20094;-69
2023/08/16 11:57:27;;;;;;;2.42;1.10;;;23.10;99.90;;;;;;5053423;28;20048;-69
2023/08/16 11:59:55;;;;;;;1.92;1.00;;;23.10;99.90;;;;;;5053334;28;20041;-69
2023/08/16 12:02:23;;;;;;;1.80;1.00;;;23.30;99.90;;;;;;5053180;28;20093;-69
2023/08/16 12:04:49;;;;;;;2.83;0.95;;;23.50;99.90;;;;;;5035026;28;20100;-69
2023/08/16 12:07:15;;;;;;;1.38;0.73;;;23.60;99.90;;;;;;5053550;28;20132;-69
2023/08/16 12:09:41;;;;;;;3.20;1.17;;;23.60;99.90;;;;;;5053521;28;20455;-69
2023/08/16 12:12:08;;;;;;;2.40;1.20;;;23.60;99.90;;;;;;5053274;28;20084;-68
2023/08/16 12:14:34;;;;;;;1.83;0.90;;;23.70;99.90;;;;;;5035644;28;20049;-69
2023/08/16 12:17:00;;;;;;;1.95;0.90;;;23.70;99.90;;;;;;5035700;28;20110;-69
2023/08/16 12:19:25;;;;;;;2.25;1.02;;;23.80;99.90;;;;;;5053194;28;20049;-71
2023/08/16 12:21:52;;;;;;;2.25;0.70;;;24.00;99.90;;;;;;5036349;28;20057;-69
2023/08/16 12:24:19;;;;;;;3.38;0.90;;;24.20;99.90;;;;;;5035642;28;20120;-68
2023/08/16 12:26:45;;;;;;;2.85;1.00;;;24.30;99.90;;;;;;5053898;28;20428;-68
2023/08/16 12:29:11;;;;;;;2.05;0.90;;;24.30;99.90;;;;;;5035445;28;20045;-68
2023/08/16 12:31:37;;;;;;;2.10;1.00;;;24.20;99.90;;;;;;5053087;28;20060;-69
2023/08/16 12:34:04;;;;;;;2.60;0.90;;;24.30;99.90;;;;;;5035046;28;20489;-69
2023/08/16 12:36:30;;;;;;;2.08;0.60;;;24.30;99.90;;;;;;5055405;28;20072;-68
2023/08/16 12:38:55;;;;;;;1.38;0.70;;;24.30;99.90;;;;;;5056766;28;20477;-69
2023/08/16 12:41:21;;;;;;;2.83;0.82;;;24.40;99.90;;;;;;5039265;28;20041;-69
2023/08/16 12:43:47;;;;;;;1.75;0.85;;;24.30;99.90;;;;;;5039255;28;20446;-69